sensor_id;sensor_type;location;lat;lon;timestamp;pressure;altitude;pressure_sealevel;temperature;humidity
55610;BME280;41486;52.502;13.486;2023-07-31T09:24:32;100322.56;;;17.80;100.00
55610;BME280;41486;52.502;13.486;2023-07-31T09:27:01;100316.09;;;17.75;100.00
55610;BME280;41486;52.502;13.486;2023-07-31T09:29:30;100309.09;;;17.82;100.00
55610;BME280;41486;52.502;13.486;2023-07-31T09:31:58;100310.34;;;17.94;100.00
55610;BME280;41486;52.502;13.486;2023-07-31T09:34:30;100317.22;;;17.80;100.00
55610;BME280;41486;52.502;13.486;2023-07-31T09:37:04;100317.75;;;17.76;100.00
55610;BME280;41486;52.502;13.486;2023-07-31T09:39:45;100317.69;;;17.53;100.00
55610;BME280;41486;52.502;13.486;2023-07-31T09:42:13;100317.06;;;17.34;100.00
55610;BME280;41486;52.502;13.486;2023-07-31T09:44:42;100313.59;;;17.25;100.00
55610;BME280;41486;52.502;13.486;2023-07-31T09:47:21;100316.56;;;17.30;100.00
55610;BME280;41486;52.502;13.486;2023-07-31T09:49:53;100312.44;;;17.28;100.00
55610;BME280;41486;52.502;13.486;2023-07-31T09:52:21;100313.09;;;17.30;100.00
55610;BME280;41486;52.502;13.486;2023-07-31T09:54:51;100309.41;;;17.31;100.00
55610;BME280;41486;52.502;13.486;2023-07-31T09:57:21;100314.19;;;17.44;100.00
55610;BME280;41486;52.502;13.486;2023-07-31T09:59:52;100314.03;;;17.54;100.00
55610;BME280;41486;52.502;13.486;2023-07-31T10:02:22;100310.19;;;17.56;100.00
55610;BME280;41486;52.502;13.486;2023-07-31T10:04:56;100305.28;;;17.76;100.00
55610;BME280;41486;52.502;13.486;2023-07-31T10:07:26;100299.97;;;17.76;100.00
55610;BME280;41486;52.502;13.486;2023-07-31T10:09:59;100297.09;;;17.86;100.00
55610;BME280;41486;52.502;13.486;2023-07-31T10:12:32;100299.03;;;17.92;100.00
55610;BME280;41486;52.502;13.486;2023-07-31T10:15:01;100289.72;;;18.05;100.00
55610;BME280;41486;52.502;13.486;2023-07-31T10:17:32;100289.56;;;17.98;100.00
55610;BME280;41486;52.502;13.486;2023-07-31T10:20:02;100291.84;;;18.09;100.00
55610;BME280;41486;52.502;13.486;2023-07-31T10:22:31;100288.81;;;18.12;100.00
55610;BME280;41486;52.502;13.486;2023-07-31T10:25:01;100290.09;;;18.25;100.00
55610;BME280;41486;52.502;13.486;2023-07-31T10:27:30;100287.63;;;18.15;100.00
55610;BME280;41486;52.502;13.486;2023-07-31T10:29:58;100290.47;;;18.13;100.00
55610;BME280;41486;52.502;13.486;2023-07-31T10:32:26;100287.81;;;18.13;100.00
55610;BME280;41486;52.502;13.486;2023-07-31T10:34:56;100295.63;;;18.15;100.00
55610;BME280;41486;52.502;13.486;2023-07-31T10:37:27;100293.38;;;18.04;100.00
55610;BME280;41486;52.502;13.486;2023-07-31T10:40:00;100285.63;;;18.17;100.00
55610;BME280;41486;52.502;13.486;2023-07-31T10:42:35;100289.19;;;18.09;100.00
55610;BME280;41486;52.502;13.486;2023-07-31T10:45:05;100287.09;;;18.20;100.00
55610;BME280;41486;52.502;13.486;2023-07-31T10:47:37;100276.41;;;18.28;100.00
55610;BME280;41486;52.502;13.486;2023-07-31T10:50:16;100270.63;;;18.48;100.00
55610;BME280;41486;52.502;13.486;2023-07-31T10:52:49;100268.91;;;18.93;100.00
55610;BME280;41486;52.502;13.486;2023-07-31T10:55:26;100254.59;;;19.39;100.00
55610;BME280;41486;52.502;13.486;2023-07-31T10:57:57;100250.03;;;19.84;100.00
55610;BME280;41486;52.502;13.486;2023-07-31T11:00:27;100258.41;;;19.81;100.00
55610;BME280;41486;52.502;13.486;2023-07-31T11:03:00;100241.31;;;19.91;100.00
55610;BME280;41486;52.502;13.486;2023-07-31T11:06:00;100230.19;;;20.09;100.00
55610;BME280;41486;52.502;13.486;2023-07-31T11:08:30;100223.94;;;20.01;100.00
55610;BME280;41486;52.502;13.486;2023-07-31T11:11:07;100236.97;;;20.33;100.00
55610;BME280;41486;52.502;13.486;2023-07-31T11:13:42;100235.25;;;20.47;100.00
55610;BME280;41486;52.502;13.486;2023-07-31T11:16:12;100228.47;;;20.44;100.00
55610;BME280;41486;52.502;13.486;2023-07-31T11:18:41;100235.38;;;20.39;100.00
55610;BME280;41486;52.502;13.486;2023-07-31T11:21:12;100234.94;;;20.35;100.00
55610;BME280;41486;52.502;13.486;2023-07-31T11:23:41;100238.94;;;20.46;100.00
55610;BME280;41486;52.502;13.486;2023-07-31T11:26:14;100236.56;;;20.58;100.00
55610;BME280;41486;52.502;13.486;2023-07-31T11:28:46;100220.91;;;20.76;100.00
55610;BME280;41486;52.502;13.486;2023-07-31T11:31:15;100230.25;;;20.87;100.00
55610;BME280;41486;52.502;13.486;2023-07-31T11:33:43;100229.25;;;21.30;99.57
55610;BME280;41486;52.502;13.486;2023-07-31T11:36:14;100229.66;;;20.92;98.74
55610;BME280;41486;52.502;13.486;2023-07-31T11:38:44;100223.81;;;20.82;98.22
55610;BME280;41486;52.502;13.486;2023-07-31T11:41:14;100215.50;;;20.98;95.24
55610;BME280;41486;52.502;13.486;2023-07-31T11:43:45;100223.00;;;20.81;92.17
55610;BME280;41486;52.502;13.486;2023-07-31T11:46:14;100228.66;;;20.71;92.72
55610;BME280;41486;52.502;13.486;2023-07-31T11:48:43;100222.41;;;20.57;93.02
55610;BME280;41486;52.502;13.486;2023-07-31T11:51:13;100225.66;;;20.53;94.53
55610;BME280;41486;52.502;13.486;2023-07-31T11:53:43;100224.00;;;20.52;94.23
55610;BME280;41486;52.502;13.486;2023-07-31T11:56:14;100219.31;;;20.60;94.89
55610;BME280;41486;52.502;13.486;2023-07-31T11:58:46;100220.16;;;20.61;94.49
55610;BME280;41486;52.502;13.486;2023-07-31T12:01:15;100214.59;;;20.62;96.69
55610;BME280;41486;52.502;13.486;2023-07-31T12:03:44;100214.81;;;20.61;96.21
55610;BME280;41486;52.502;13.486;2023-07-31T12:06:13;100210.03;;;20.56;95.43
55610;BME280;41486;52.502;13.486;2023-07-31T12:08:41;100217.81;;;20.51;97.71
55610;BME280;41486;52.502;13.486;2023-07-31T12:11:10;100205.75;;;20.33;99.72
55610;BME280;41486;52.502;13.486;2023-07-31T12:13:38;100224.38;;;20.48;98.39
55610;BME280;41486;52.502;13.486;2023-07-31T12:16:07;100210.69;;;20.58;97.99
55610;BME280;41486;52.502;13.486;2023-07-31T12:18:37;100201.31;;;20.69;96.17
55610;BME280;41486;52.502;13.486;2023-07-31T12:21:06;100199.09;;;20.73;93.87
55610;BME280;41486;52.502;13.486;2023-07-31T12:23:35;100204.59;;;20.71;94.67
55610;BME280;41486;52.502;13.486;2023-07-31T12:26:06;100206.34;;;20.79;95.52
55610;BME280;41486;52.502;13.486;2023-07-31T12:28:35;100209.34;;;20.98;91.75
55610;BME280;41486;52.502;13.486;2023-07-31T12:31:05;100198.81;;;20.96;89.23
55610;BME280;41486;52.502;13.486;2023-07-31T12:33:35;100197.34;;;20.87;90.53
55610;BME280;41486;52.502;13.486;2023-07-31T12:36:07;100190.56;;;20.91;92.65
55610;BME280;41486;52.502;13.486;2023-07-31T12:38:36;100186.31;;;21.03;92.44
55610;BME280;41486;52.502;13.486;2023-07-31T12:41:04;100184.91;;;21.07;91.17
55610;BME280;41486;52.502;13.486;2023-07-31T12:43:33;100182.59;;;21.04;91.05
55610;BME280;41486;52.502;13.486;2023-07-31T12:46:02;100175.44;;;21.05;90.81
55610;BME280;41486;52.502;13.486;2023-07-31T12:48:31;100172.53;;;21.06;92.65
55610;BME280;41486;52.502;13.486;2023-07-31T12:51:01;100167.44;;;21.18;93.47
55610;BME280;41486;52.502;13.486;2023-07-31T12:53:29;100161.53;;;21.30;93.20
55610;BME280;41486;52.502;13.486;2023-07-31T12:55:57;100168.25;;;21.61;92.97
55610;BME280;41486;52.502;13.486;2023-07-31T12:58:25;100167.31;;;21.33;91.36
55610;BME280;41486;52.502;13.486;2023-07-31T13:00:53;100159.97;;;21.49;91.34
55610;BME280;41486;52.502;13.486;2023-07-31T13:03:22;100154.44;;;21.57;90.48
55610;BME280;41486;52.502;13.486;2023-07-31T13:05:50;100147.09;;;21.24;92.30
55610;BME280;41486;52.502;13.486;2023-07-31T13:08:21;100145.88;;;21.26;92.09
55610;BME280;41486;52.502;13.486;2023-07-31T13:10:49;100151.22;;;21.26;93.21
55610;BME280;41486;52.502;13.486;2023-07-31T13:13:17;100156.91;;;21.10;92.80
55610;BME280;41486;52.502;13.486;2023-07-31T13:15:45;100155.00;;;20.97;92.52
55610;BME280;41486;52.502;13.486;2023-07-31T13:18:13;100159.63;;;20.75;93.18
55610;BME280;41486;52.502;13.486;2023-07-31T13:20:41;100157.97;;;20.74;93.44
55610;BME280;41486;52.502;13.486;2023-07-31T13:23:09;100156.75;;;20.76;94.32
55610;BME280;41486;52.502;13.486;2023-07-31T13:25:39;100165.63;;;20.84;95.37
55610;BME280;41486;52.502;13.486;2023-07-31T13:28:07;100156.03;;;20.68;95.68
55610;BME280;41486;52.502;13.486;2023-07-31T13:30:35;100164.41;;;20.58;96.82
55610;BME280;41486;52.502;13.486;2023-07-31T13:33:03;100149.72;;;20.47;97.16
55610;BME280;41486;52.502;13.486;2023-07-31T13:35:33;100143.81;;;20.52;98.01
55610;BME280;41486;52.502;13.486;2023-07-31T13:38:01;100150.88;;;20.66;97.97
55610;BME280;41486;52.502;13.486;2023-07-31T13:40:29;100137.97;;;21.05;93.88
55610;BME280;41486;52.502;13.486;2023-07-31T13:42:58;100140.75;;;21.32;92.50
55610;BME280;41486;52.502;13.486;2023-07-31T13:45:26;100138.72;;;21.40;92.59
55610;BME280;41486;52.502;13.486;2023-07-31T13:47:55;100129.53;;;21.63;92.74
55610;BME280;41486;52.502;13.486;2023-07-31T13:50:23;100125.88;;;21.71;90.50
55610;BME280;41486;52.502;13.486;2023-07-31T13:52:51;100121.94;;;21.67;90.26
55610;BME280;41486;52.502;13.486;2023-07-31T13:55:20;100122.16;;;21.79;90.34
55610;BME280;41486;52.502;13.486;2023-07-31T13:57:48;100121.13;;;21.93;90.02
55610;BME280;41486;52.502;13.486;2023-07-31T14:00:17;100111.88;;;22.02;89.72
55610;BME280;41486;52.502;13.486;2023-07-31T14:02:45;100117.63;;;21.72;89.73
55610;BME280;41486;52.502;13.486;2023-07-31T14:05:14;100117.97;;;21.56;89.89
55610;BME280;41486;52.502;13.486;2023-07-31T14:07:42;100120.88;;;21.61;90.68
55610;BME280;41486;52.502;13.486;2023-07-31T14:10:10;100116.56;;;21.60;90.27
55610;BME280;41486;52.502;13.486;2023-07-31T14:12:39;100110.16;;;21.61;91.14
55610;BME280;41486;52.502;13.486;2023-07-31T14:15:10;100110.81;;;21.70;90.42
55610;BME280;41486;52.502;13.486;2023-07-31T14:17:39;100107.91;;;21.65;91.20
55610;BME280;41486;52.502;13.486;2023-07-31T14:20:09;100104.81;;;21.61;91.58
55610;BME280;41486;52.502;13.486;2023-07-31T14:22:38;100109.16;;;21.75;89.80
55610;BME280;41486;52.502;13.486;2023-07-31T14:25:06;100109.78;;;21.78;90.14
55610;BME280;41486;52.502;13.486;2023-07-31T14:27:37;100117.56;;;21.52;89.35
55610;BME280;41486;52.502;13.486;2023-07-31T14:30:06;100096.34;;;21.51;91.37
55610;BME280;41486;52.502;13.486;2023-07-31T14:32:35;100094.28;;;21.46;91.26
55610;BME280;41486;52.502;13.486;2023-07-31T14:35:06;100093.84;;;21.42;92.23
55610;BME280;41486;52.502;13.486;2023-07-31T14:37:38;100086.44;;;21.51;92.00
55610;BME280;41486;52.502;13.486;2023-07-31T14:40:07;100087.88;;;21.54;92.44
55610;BME280;41486;52.502;13.486;2023-07-31T14:42:36;100087.94;;;21.61;90.53
55610;BME280;41486;52.502;13.486;2023-07-31T14:45:05;100081.56;;;21.75;90.31
55610;BME280;41486;52.502;13.486;2023-07-31T14:47:34;100078.50;;;21.78;90.03
55610;BME280;41486;52.502;13.486;2023-07-31T14:50:05;100080.75;;;21.74;87.01
55610;BME280;41486;52.502;13.486;2023-07-31T14:52:33;100074.56;;;21.74;88.35
55610;BME280;41486;52.502;13.486;2023-07-31T14:55:01;100068.59;;;21.65;87.83
55610;BME280;41486;52.502;13.486;2023-07-31T14:57:30;100073.53;;;21.68;87.05
55610;BME280;41486;52.502;13.486;2023-07-31T14:59:58;100070.44;;;21.65;88.41
55610;BME280;41486;52.502;13.486;2023-07-31T15:02:26;100076.22;;;21.62;88.78
55610;BME280;41486;52.502;13.486;2023-07-31T15:04:55;100075.59;;;21.59;88.57
55610;BME280;41486;52.502;13.486;2023-07-31T15:07:25;100064.63;;;21.54;89.32
55610;BME280;41486;52.502;13.486;2023-07-31T15:09:53;100059.28;;;21.54;87.50
55610;BME280;41486;52.502;13.486;2023-07-31T15:12:21;100055.97;;;21.52;87.45
55610;BME280;41486;52.502;13.486;2023-07-31T15:14:50;100066.91;;;21.51;87.86
55610;BME280;41486;52.502;13.486;2023-07-31T15:17:18;100065.44;;;21.48;88.51
55610;BME280;41486;52.502;13.486;2023-07-31T15:19:47;100058.00;;;21.43;91.90
55610;BME280;41486;52.502;13.486;2023-07-31T15:22:15;100060.03;;;21.28;93.29
55610;BME280;41486;52.502;13.486;2023-07-31T15:24:44;100051.19;;;21.14;96.81
55610;BME280;41486;52.502;13.486;2023-07-31T15:27:13;100046.94;;;20.85;100.00
55610;BME280;41486;52.502;13.486;2023-07-31T15:29:41;100047.56;;;20.80;100.00
55610;BME280;41486;52.502;13.486;2023-07-31T15:32:09;100050.38;;;20.72;100.00
55610;BME280;41486;52.502;13.486;2023-07-31T15:34:37;100044.38;;;20.70;100.00
55610;BME280;41486;52.502;13.486;2023-07-31T15:37:05;100044.16;;;20.71;100.00
55610;BME280;41486;52.502;13.486;2023-07-31T15:39:33;100032.09;;;20.75;100.00
55610;BME280;41486;52.502;13.486;2023-07-31T15:42:03;100032.75;;;20.77;100.00
55610;BME280;41486;52.502;13.486;2023-07-31T15:44:31;100035.41;;;20.84;100.00
55610;BME280;41486;52.502;13.486;2023-07-31T15:46:59;100038.94;;;20.91;100.00
55610;BME280;41486;52.502;13.486;2023-07-31T15:49:27;100024.50;;;20.79;100.00
55610;BME280;41486;52.502;13.486;2023-07-31T15:51:57;100017.50;;;20.78;100.00
55610;BME280;41486;52.502;13.486;2023-07-31T15:54:25;100016.41;;;20.72;100.00
55610;BME280;41486;52.502;13.486;2023-07-31T15:56:53;100013.97;;;20.71;100.00
55610;BME280;41486;52.502;13.486;2023-07-31T15:59:23;100009.06;;;20.74;100.00
55610;BME280;41486;52.502;13.486;2023-07-31T16:01:51;100006.25;;;20.89;100.00
55610;BME280;41486;52.502;13.486;2023-07-31T16:04:20;100004.56;;;20.82;100.00
55610;BME280;41486;52.502;13.486;2023-07-31T16:06:49;99997.19;;;20.90;100.00
55610;BME280;41486;52.502;13.486;2023-07-31T16:09:17;99997.97;;;20.84;100.00
55610;BME280;41486;52.502;13.486;2023-07-31T16:11:45;100002.97;;;20.94;100.00
55610;BME280;41486;52.502;13.486;2023-07-31T16:14:14;99991.03;;;20.96;100.00
55610;BME280;41486;52.502;13.486;2023-07-31T16:16:43;99998.84;;;20.98;100.00
55610;BME280;41486;52.502;13.486;2023-07-31T16:19:13;100007.09;;;20.96;100.00
55610;BME280;41486;52.502;13.486;2023-07-31T16:21:41;100015.09;;;20.96;100.00
55610;BME280;41486;52.502;13.486;2023-07-31T16:24:10;100014.69;;;21.00;100.00
55610;BME280;41486;52.502;13.486;2023-07-31T16:26:38;100013.66;;;21.01;100.00
55610;BME280;41486;52.502;13.486;2023-07-31T16:29:07;100021.13;;;21.12;100.00
55610;BME280;41486;52.502;13.486;2023-07-31T16:31:35;100026.06;;;21.15;100.00
55610;BME280;41486;52.502;13.486;2023-07-31T16:34:22;100042.34;;;21.20;98.41
55610;BME280;41486;52.502;13.486;2023-07-31T16:36:51;100030.59;;;21.28;97.90
55610;BME280;41486;52.502;13.486;2023-07-31T16:39:21;100034.13;;;21.28;96.44
55610;BME280;41486;52.502;13.486;2023-07-31T16:41:49;100013.94;;;21.19;96.07
55610;BME280;41486;52.502;13.486;2023-07-31T16:44:18;100016.63;;;21.33;92.59
55610;BME280;41486;52.502;13.486;2023-07-31T16:46:46;100015.78;;;21.25;93.26
55610;BME280;41486;52.502;13.486;2023-07-31T16:49:14;100013.13;;;21.32;92.06
55610;BME280;41486;52.502;13.486;2023-07-31T16:51:44;99998.94;;;21.38;90.12
55610;BME280;41486;52.502;13.486;2023-07-31T16:54:17;100003.47;;;21.38;89.83
55610;BME280;41486;52.502;13.486;2023-07-31T16:56:45;99995.00;;;21.41;89.69
55610;BME280;41486;52.502;13.486;2023-07-31T16:59:28;99997.91;;;21.39;90.27
55610;BME280;41486;52.502;13.486;2023-07-31T17:01:57;99992.56;;;21.39;89.28
55610;BME280;41486;52.502;13.486;2023-07-31T17:04:26;99999.34;;;21.42;89.81
55610;BME280;41486;52.502;13.486;2023-07-31T17:06:59;99987.19;;;21.53;89.58
55610;BME280;41486;52.502;13.486;2023-07-31T17:09:27;99977.50;;;21.52;89.90
55610;BME280;41486;52.502;13.486;2023-07-31T17:11:55;99984.09;;;21.49;89.68
55610;BME280;41486;52.502;13.486;2023-07-31T17:14:23;99980.19;;;21.52;89.51
55610;BME280;41486;52.502;13.486;2023-07-31T17:16:53;99977.13;;;21.55;89.74
55610;BME280;41486;52.502;13.486;2023-07-31T17:19:21;99984.31;;;21.48;90.22
55610;BME280;41486;52.502;13.486;2023-07-31T17:21:49;99987.41;;;21.38;90.27
55610;BME280;41486;52.502;13.486;2023-07-31T17:24:18;99994.00;;;21.42;91.12
55610;BME280;41486;52.502;13.486;2023-07-31T17:26:48;99991.09;;;21.30;90.99
55610;BME280;41486;52.502;13.486;2023-07-31T17:29:34;100003.47;;;21.38;90.19
55610;BME280;41486;52.502;13.486;2023-07-31T17:32:06;100000.78;;;21.38;90.29
55610;BME280;41486;52.502;13.486;2023-07-31T17:34:37;99985.75;;;21.43;90.37
55610;BME280;41486;52.502;13.486;2023-07-31T17:37:05;99998.94;;;21.38;89.59
55610;BME280;41486;52.502;13.486;2023-07-31T17:39:35;100002.44;;;21.32;90.85
55610;BME280;41486;52.502;13.486;2023-07-31T17:42:07;100017.22;;;21.15;95.40
55610;BME280;41486;52.502;13.486;2023-07-31T17:44:35;100000.38;;;20.72;100.00
55610;BME280;41486;52.502;13.486;2023-07-31T17:47:07;100003.19;;;20.51;100.00
55610;BME280;41486;52.502;13.486;2023-07-31T17:49:35;100001.09;;;20.46;100.00
55610;BME280;41486;52.502;13.486;2023-07-31T17:52:04;99996.34;;;20.35;100.00
55610;BME280;41486;52.502;13.486;2023-07-31T17:54:34;99997.38;;;20.40;100.00
55610;BME280;41486;52.502;13.486;2023-07-31T17:57:03;99996.34;;;20.41;100.00
55610;BME280;41486;52.502;13.486;2023-07-31T17:59:31;99999.44;;;20.38;100.00
55610;BME280;41486;52.502;13.486;2023-07-31T18:01:59;100002.66;;;20.27;100.00
55610;BME280;41486;52.502;13.486;2023-07-31T18:04:27;100001.84;;;20.33;100.00
55610;BME280;41486;52.502;13.486;2023-07-31T18:06:58;99999.34;;;20.25;100.00
55610;BME280;41486;52.502;13.486;2023-07-31T18:09:26;99997.47;;;20.18;100.00
55610;BME280;41486;52.502;13.486;2023-07-31T18:11:56;99994.56;;;20.13;100.00
55610;BME280;41486;52.502;13.486;2023-07-31T18:14:24;99986.94;;;20.10;100.00
55610;BME280;41486;52.502;13.486;2023-07-31T18:16:56;99994.72;;;20.12;100.00
55610;BME280;41486;52.502;13.486;2023-07-31T18:19:27;99983.66;;;20.15;100.00
55610;BME280;41486;52.502;13.486;2023-07-31T18:21:55;99978.31;;;20.15;100.00
55610;BME280;41486;52.502;13.486;2023-07-31T18:24:26;99972.78;;;20.16;100.00
55610;BME280;41486;52.502;13.486;2023-07-31T18:26:56;99979.34;;;20.14;100.00
55610;BME280;41486;52.502;13.486;2023-07-31T18:29:27;99979.28;;;20.07;100.00
55610;BME280;41486;52.502;13.486;2023-07-31T18:31:57;99979.56;;;20.12;100.00
55610;BME280;41486;52.502;13.486;2023-07-31T18:34:25;99986.56;;;20.13;100.00
55610;BME280;41486;52.502;13.486;2023-07-31T18:36:56;99985.97;;;20.25;100.00
55610;BME280;41486;52.502;13.486;2023-07-31T18:39:31;99985.38;;;20.23;100.00
55610;BME280;41486;52.502;13.486;2023-07-31T18:42:01;99985.22;;;20.31;100.00
55610;BME280;41486;52.502;13.486;2023-07-31T18:44:30;99983.94;;;20.27;100.00
55610;BME280;41486;52.502;13.486;2023-07-31T18:46:59;99982.75;;;20.36;100.00
55610;BME280;41486;52.502;13.486;2023-07-31T18:49:30;99985.03;;;20.39;100.00
55610;BME280;41486;52.502;13.486;2023-07-31T18:51:59;99983.94;;;20.27;100.00
55610;BME280;41486;52.502;13.486;2023-07-31T18:54:29;99979.66;;;20.32;100.00
55610;BME280;41486;52.502;13.486;2023-07-31T18:57:04;99983.72;;;20.28;100.00
55610;BME280;41486;52.502;13.486;2023-07-31T18:59:32;99970.59;;;20.27;100.00
55610;BME280;41486;52.502;13.486;2023-07-31T19:02:00;99974.97;;;20.41;100.00
55610;BME280;41486;52.502;13.486;2023-07-31T19:04:30;99972.88;;;20.37;100.00
55610;BME280;41486;52.502;13.486;2023-07-31T19:07:11;99978.59;;;20.27;100.00
55610;BME280;41486;52.502;13.486;2023-07-31T19:09:50;99972.88;;;20.30;100.00
55610;BME280;41486;52.502;13.486;2023-07-31T19:12:35;99970.16;;;20.23;100.00
55610;BME280;41486;52.502;13.486;2023-07-31T19:15:05;99967.53;;;20.30;100.00
55610;BME280;41486;52.502;13.486;2023-07-31T19:17:33;99970.25;;;20.08;100.00
55610;BME280;41486;52.502;13.486;2023-07-31T19:20:03;99968.03;;;20.12;100.00
55610;BME280;41486;52.502;13.486;2023-07-31T19:22:32;99963.19;;;20.29;100.00
55610;BME280;41486;52.502;13.486;2023-07-31T19:25:00;99964.16;;;20.14;100.00
55610;BME280;41486;52.502;13.486;2023-07-31T19:27:28;99961.88;;;20.11;100.00
55610;BME280;41486;52.502;13.486;2023-07-31T19:29:57;99956.47;;;20.05;100.00
55610;BME280;41486;52.502;13.486;2023-07-31T19:32:28;99955.91;;;20.09;100.00
55610;BME280;41486;52.502;13.486;2023-07-31T19:35:03;99950.34;;;20.04;100.00
55610;BME280;41486;52.502;13.486;2023-07-31T19:37:34;99950.72;;;20.01;100.00
55610;BME280;41486;52.502;13.486;2023-07-31T19:40:03;99939.81;;;19.96;100.00
55610;BME280;41486;52.502;13.486;2023-07-31T19:42:32;99936.66;;;19.85;100.00
55610;BME280;41486;52.502;13.486;2023-07-31T19:45:04;99935.13;;;19.76;100.00
55610;BME280;41486;52.502;13.486;2023-07-31T19:47:32;99936.66;;;19.85;100.00
55610;BME280;41486;52.502;13.486;2023-07-31T19:50:01;99932.19;;;19.93;100.00
55610;BME280;41486;52.502;13.486;2023-07-31T19:52:30;99929.41;;;19.79;100.00
55610;BME280;41486;52.502;13.486;2023-07-31T19:54:59;99927.13;;;19.76;100.00
55610;BME280;41486;52.502;13.486;2023-07-31T19:57:27;99925.28;;;19.77;100.00
55610;BME280;41486;52.502;13.486;2023-07-31T19:59:55;99931.25;;;19.79;100.00
55610;BME280;41486;52.502;13.486;2023-07-31T20:02:25;99927.69;;;19.71;100.00
55610;BME280;41486;52.502;13.486;2023-07-31T20:04:53;99921.59;;;19.78;100.00
55610;BME280;41486;52.502;13.486;2023-07-31T20:07:21;99923.41;;;19.70;100.00
55610;BME280;41486;52.502;13.486;2023-07-31T20:09:49;99912.75;;;19.77;100.00
55610;BME280;41486;52.502;13.486;2023-07-31T20:12:17;99918.06;;;19.70;100.00
55610;BME280;41486;52.502;13.486;2023-07-31T20:14:47;99910.50;;;19.74;100.00
55610;BME280;41486;52.502;13.486;2023-07-31T20:17:15;99912.09;;;19.68;100.00
55610;BME280;41486;52.502;13.486;2023-07-31T20:19:45;99902.44;;;19.67;100.00
55610;BME280;41486;52.502;13.486;2023-07-31T20:22:13;99907.09;;;19.59;100.00
55610;BME280;41486;52.502;13.486;2023-07-31T20:24:41;99903.81;;;19.63;100.00
55610;BME280;41486;52.502;13.486;2023-07-31T20:27:09;99896.88;;;19.62;100.00
55610;BME280;41486;52.502;13.486;2023-07-31T20:29:37;99892.69;;;19.53;100.00
55610;BME280;41486;52.502;13.486;2023-07-31T20:32:07;99887.16;;;19.54;100.00
55610;BME280;41486;52.502;13.486;2023-07-31T20:34:35;99884.53;;;19.61;100.00
55610;BME280;41486;52.502;13.486;2023-07-31T20:37:04;99882.28;;;19.65;100.00
55610;BME280;41486;52.502;13.486;2023-07-31T20:39:32;99881.88;;;19.61;100.00
55610;BME280;41486;52.502;13.486;2023-07-31T20:42:00;99872.72;;;19.49;100.00
55610;BME280;41486;52.502;13.486;2023-07-31T20:44:28;99863.28;;;19.46;100.00
55610;BME280;41486;52.502;13.486;2023-07-31T20:46:56;99870.75;;;19.58;100.00
55610;BME280;41486;52.502;13.486;2023-07-31T20:49:27;99863.50;;;19.51;100.00
55610;BME280;41486;52.502;13.486;2023-07-31T20:51:55;99855.06;;;19.41;100.00
55610;BME280;41486;52.502;13.486;2023-07-31T20:54:24;99856.88;;;19.41;100.00
55610;BME280;41486;52.502;13.486;2023-07-31T20:56:52;99848.22;;;19.32;100.00
55610;BME280;41486;52.502;13.486;2023-07-31T20:59:20;99852.22;;;19.21;100.00
55610;BME280;41486;52.502;13.486;2023-07-31T21:01:48;99847.97;;;19.27;100.00
55610;BME280;41486;52.502;13.486;2023-07-31T21:04:16;99837.69;;;19.23;100.00
55610;BME280;41486;52.502;13.486;2023-07-31T21:06:44;99832.28;;;19.17;100.00
55610;BME280;41486;52.502;13.486;2023-07-31T21:09:12;99835.53;;;19.12;100.00
55610;BME280;41486;52.502;13.486;2023-07-31T21:11:42;99829.81;;;19.15;100.00
55610;BME280;41486;52.502;13.486;2023-07-31T21:14:10;99825.41;;;19.29;100.00
55610;BME280;41486;52.502;13.486;2023-07-31T21:16:43;99825.38;;;19.22;100.00
55610;BME280;41486;52.502;13.486;2023-07-31T21:19:11;99827.44;;;19.27;100.00
55610;BME280;41486;52.502;13.486;2023-07-31T21:21:41;99813.75;;;19.08;100.00
55610;BME280;41486;52.502;13.486;2023-07-31T21:24:09;99818.66;;;19.05;100.00
55610;BME280;41486;52.502;13.486;2023-07-31T21:26:37;99817.94;;;19.18;100.00
55610;BME280;41486;52.502;13.486;2023-07-31T21:29:07;99800.78;;;19.27;100.00
55610;BME280;41486;52.502;13.486;2023-07-31T21:31:35;99804.88;;;19.30;100.00
55610;BME280;41486;52.502;13.486;2023-07-31T21:34:03;99802.66;;;19.33;100.00
55610;BME280;41486;52.502;13.486;2023-07-31T21:36:31;99798.31;;;19.26;100.00
55610;BME280;41486;52.502;13.486;2023-07-31T21:39:00;99783.81;;;19.42;100.00
55610;BME280;41486;52.502;13.486;2023-07-31T21:41:30;99798.00;;;19.42;100.00
55610;BME280;41486;52.502;13.486;2023-07-31T21:44:01;99792.41;;;19.30;100.00
55610;BME280;41486;52.502;13.486;2023-07-31T21:46:33;99782.34;;;19.32;100.00
55610;BME280;41486;52.502;13.486;2023-07-31T21:49:03;99777.44;;;19.36;100.00
55610;BME280;41486;52.502;13.486;2023-07-31T21:51:33;99779.22;;;19.29;100.00
55610;BME280;41486;52.502;13.486;2023-07-31T21:54:03;99783.56;;;19.30;100.00
55610;BME280;41486;52.502;13.486;2023-07-31T21:56:33;99779.66;;;19.26;100.00
55610;BME280;41486;52.502;13.486;2023-07-31T21:59:03;99774.97;;;19.34;100.00
55610;BME280;41486;52.502;13.486;2023-07-31T22:01:35;99777.59;;;19.28;100.00
55610;BME280;41486;52.502;13.486;2023-07-31T22:04:04;99769.84;;;19.33;100.00
55610;BME280;41486;52.502;13.486;2023-07-31T22:06:34;99767.75;;;19.28;100.00
55610;BME280;41486;52.502;13.486;2023-07-31T22:09:05;99763.81;;;19.24;100.00
55610;BME280;41486;52.502;13.486;2023-07-31T22:11:36;99760.75;;;19.27;100.00
55610;BME280;41486;52.502;13.486;2023-07-31T22:14:05;99760.56;;;19.29;100.00